sensor_id;sensor_type;location;lat;lon;timestamp;P1;durP1;ratioP1;P2;durP2;ratioP2
38940;SDS011;43236;47.208;7.518;2024-03-22T00:00:42;2.90;;;2.60;;
38940;SDS011;43236;47.208;7.518;2024-03-22T00:03:28;4.22;;;3.22;;
38940;SDS011;43236;47.208;7.518;2024-03-22T00:06:15;2.63;;;2.13;;
38940;SDS011;43236;47.208;7.518;2024-03-22T00:09:03;4.28;;;2.58;;
38940;SDS011;43236;47.208;7.518;2024-03-22T00:11:50;5.30;;;3.65;;
38940;SDS011;43236;47.208;7.518;2024-03-22T00:14:36;3.00;;;2.53;;
38940;SDS011;43236;47.208;7.518;2024-03-22T00:17:23;4.28;;;2.42;;
38940;SDS011;43236;47.208;7.518;2024-03-22T00:20:09;2.30;;;2.10;;
38940;SDS011;43236;47.208;7.518;2024-03-22T00:22:57;6.10;;;3.15;;
38940;SDS011;43236;47.208;7.518;2024-03-22T00:25:44;3.17;;;2.28;;
38940;SDS011;43236;47.208;7.518;2024-03-22T00:28:31;3.00;;;2.15;;
38940;SDS011;43236;47.208;7.518;2024-03-22T00:31:17;3.20;;;2.35;;
38940;SDS011;43236;47.208;7.518;2024-03-22T00:34:05;2.47;;;1.95;;
38940;SDS011;43236;47.208;7.518;2024-03-22T00:36:51;4.00;;;2.05;;
38940;SDS011;43236;47.208;7.518;2024-03-22T00:39:38;3.90;;;2.28;;
38940;SDS011;43236;47.208;7.518;2024-03-22T00:42:25;2.30;;;2.05;;
38940;SDS011;43236;47.208;7.518;2024-03-22T00:45:12;3.28;;;1.95;;
38940;SDS011;43236;47.208;7.518;2024-03-22T00:47:58;3.55;;;2.55;;
38940;SDS011;43236;47.208;7.518;2024-03-22T00:50:45;3.35;;;2.15;;
38940;SDS011;43236;47.208;7.518;2024-03-22T00:53:31;3.88;;;2.40;;
38940;SDS011;43236;47.208;7.518;2024-03-22T00:56:18;3.00;;;2.05;;
38940;SDS011;43236;47.208;7.518;2024-03-22T00:59:06;3.70;;;2.78;;
38940;SDS011;43236;47.208;7.518;2024-03-22T01:01:53;1.70;;;1.60;;
38940;SDS011;43236;47.208;7.518;2024-03-22T01:04:39;4.35;;;2.45;;
38940;SDS011;43236;47.208;7.518;2024-03-22T01:07:26;2.08;;;1.80;;
38940;SDS011;43236;47.208;7.518;2024-03-22T01:10:12;3.95;;;2.30;;
38940;SDS011;43236;47.208;7.518;2024-03-22T01:12:59;4.22;;;2.33;;
38940;SDS011;43236;47.208;7.518;2024-03-22T01:15:47;3.28;;;2.00;;
38940;SDS011;43236;47.208;7.518;2024-03-22T01:18:33;2.63;;;2.40;;
38940;SDS011;43236;47.208;7.518;2024-03-22T01:21:20;5.53;;;2.13;;
38940;SDS011;43236;47.208;7.518;2024-03-22T01:24:10;3.05;;;2.75;;
38940;SDS011;43236;47.208;7.518;2024-03-22T01:26:57;5.80;;;2.78;;
38940;SDS011;43236;47.208;7.518;2024-03-22T01:29:43;3.38;;;2.50;;
38940;SDS011;43236;47.208;7.518;2024-03-22T01:32:31;3.67;;;2.72;;
38940;SDS011;43236;47.208;7.518;2024-03-22T01:35:17;3.85;;;2.35;;
38940;SDS011;43236;47.208;7.518;2024-03-22T01:38:04;4.95;;;2.67;;
38940;SDS011;43236;47.208;7.518;2024-03-22T01:40:50;2.55;;;2.22;;
38940;SDS011;43236;47.208;7.518;2024-03-22T01:43:38;2.85;;;2.42;;
38940;SDS011;43236;47.208;7.518;2024-03-22T01:46:24;4.30;;;3.53;;
38940;SDS011;43236;47.208;7.518;2024-03-22T01:49:12;4.20;;;2.53;;
38940;SDS011;43236;47.208;7.518;2024-03-22T01:52:01;4.30;;;3.13;;
38940;SDS011;43236;47.208;7.518;2024-03-22T01:54:48;5.07;;;3.47;;
38940;SDS011;43236;47.208;7.518;2024-03-22T01:57:35;5.22;;;2.83;;
38940;SDS011;43236;47.208;7.518;2024-03-22T02:00:23;4.13;;;2.78;;
38940;SDS011;43236;47.208;7.518;2024-03-22T02:03:09;5.45;;;3.67;;
38940;SDS011;43236;47.208;7.518;2024-03-22T02:05:57;3.83;;;2.78;;
38940;SDS011;43236;47.208;7.518;2024-03-22T02:08:43;3.22;;;2.63;;
38940;SDS011;43236;47.208;7.518;2024-03-22T02:11:30;3.78;;;2.83;;
38940;SDS011;43236;47.208;7.518;2024-03-22T02:14:17;4.88;;;2.83;;
38940;SDS011;43236;47.208;7.518;2024-03-22T02:17:04;4.35;;;2.80;;
38940;SDS011;43236;47.208;7.518;2024-03-22T02:19:50;2.55;;;1.98;;
38940;SDS011;43236;47.208;7.518;2024-03-22T02:22:38;2.97;;;1.83;;
38940;SDS011;43236;47.208;7.518;2024-03-22T02:25:26;4.35;;;3.35;;
38940;SDS011;43236;47.208;7.518;2024-03-22T02:28:13;2.72;;;2.45;;
38940;SDS011;43236;47.208;7.518;2024-03-22T02:30:59;3.22;;;2.03;;
38940;SDS011;43236;47.208;7.518;2024-03-22T02:33:46;5.20;;;2.92;;
38940;SDS011;43236;47.208;7.518;2024-03-22T02:36:32;3.75;;;2.05;;
38940;SDS011;43236;47.208;7.518;2024-03-22T02:39:19;3.20;;;2.50;;
38940;SDS011;43236;47.208;7.518;2024-03-22T02:42:07;3.95;;;2.38;;
38940;SDS011;43236;47.208;7.518;2024-03-22T02:44:54;3.33;;;2.58;;
38940;SDS011;43236;47.208;7.518;2024-03-22T02:47:40;2.30;;;2.00;;
38940;SDS011;43236;47.208;7.518;2024-03-22T02:50:27;4.90;;;2.63;;
38940;SDS011;43236;47.208;7.518;2024-03-22T02:53:13;2.53;;;2.28;;
38940;SDS011;43236;47.208;7.518;2024-03-22T02:56:00;5.65;;;2.10;;
38940;SDS011;43236;47.208;7.518;2024-03-22T02:58:47;3.60;;;2.78;;
38940;SDS011;43236;47.208;7.518;2024-03-22T03:01:35;4.63;;;2.65;;
38940;SDS011;43236;47.208;7.518;2024-03-22T03:04:21;2.95;;;2.65;;
38940;SDS011;43236;47.208;7.518;2024-03-22T03:07:10;2.20;;;2.00;;
38940;SDS011;43236;47.208;7.518;2024-03-22T03:09:57;4.43;;;2.55;;
38940;SDS011;43236;47.208;7.518;2024-03-22T03:12:44;2.65;;;2.22;;
38940;SDS011;43236;47.208;7.518;2024-03-22T03:15:31;6.20;;;2.90;;
38940;SDS011;43236;47.208;7.518;2024-03-22T03:18:18;2.58;;;2.13;;
38940;SDS011;43236;47.208;7.518;2024-03-22T03:21:04;4.20;;;2.50;;
38940;SDS011;43236;47.208;7.518;2024-03-22T03:23:51;4.32;;;2.33;;
38940;SDS011;43236;47.208;7.518;2024-03-22T03:26:37;3.47;;;2.25;;
38940;SDS011;43236;47.208;7.518;2024-03-22T03:29:24;3.67;;;1.98;;
38940;SDS011;43236;47.208;7.518;2024-03-22T03:32:12;4.15;;;2.38;;
38940;SDS011;43236;47.208;7.518;2024-03-22T03:34:59;4.20;;;2.40;;
38940;SDS011;43236;47.208;7.518;2024-03-22T03:37:45;2.78;;;1.73;;
38940;SDS011;43236;47.208;7.518;2024-03-22T03:40:32;3.30;;;2.10;;
38940;SDS011;43236;47.208;7.518;2024-03-22T03:43:18;3.13;;;1.92;;
38940;SDS011;43236;47.208;7.518;2024-03-22T03:46:05;3.47;;;2.20;;
38940;SDS011;43236;47.208;7.518;2024-03-22T03:48:52;2.22;;;1.63;;
38940;SDS011;43236;47.208;7.518;2024-03-22T03:51:39;3.83;;;2.63;;
38940;SDS011;43236;47.208;7.518;2024-03-22T03:54:25;3.55;;;2.10;;
38940;SDS011;43236;47.208;7.518;2024-03-22T03:57:12;2.67;;;1.92;;
38940;SDS011;43236;47.208;7.518;2024-03-22T03:59:58;6.28;;;2.33;;
38940;SDS011;43236;47.208;7.518;2024-03-22T04:02:45;1.92;;;1.70;;
38940;SDS011;43236;47.208;7.518;2024-03-22T04:05:35;2.78;;;2.10;;
38940;SDS011;43236;47.208;7.518;2024-03-22T04:08:22;2.10;;;1.85;;
38940;SDS011;43236;47.208;7.518;2024-03-22T04:11:08;3.47;;;2.38;;
38940;SDS011;43236;47.208;7.518;2024-03-22T04:13:56;3.45;;;2.45;;
38940;SDS011;43236;47.208;7.518;2024-03-22T04:16:42;2.42;;;2.17;;
38940;SDS011;43236;47.208;7.518;2024-03-22T04:19:30;4.00;;;2.47;;
38940;SDS011;43236;47.208;7.518;2024-03-22T04:22:17;4.07;;;2.40;;
38940;SDS011;43236;47.208;7.518;2024-03-22T04:25:04;4.22;;;3.53;;
38940;SDS011;43236;47.208;7.518;2024-03-22T04:27:51;4.97;;;4.47;;
38940;SDS011;43236;47.208;7.518;2024-03-22T04:30:38;4.55;;;3.10;;
38940;SDS011;43236;47.208;7.518;2024-03-22T04:33:25;5.78;;;2.55;;
38940;SDS011;43236;47.208;7.518;2024-03-22T04:36:12;3.10;;;2.80;;
38940;SDS011;43236;47.208;7.518;2024-03-22T04:38:59;3.35;;;2.58;;
38940;SDS011;43236;47.208;7.518;2024-03-22T04:41:46;5.18;;;3.13;;
38940;SDS011;43236;47.208;7.518;2024-03-22T04:44:34;2.78;;;2.03;;
38940;SDS011;43236;47.208;7.518;2024-03-22T04:47:21;4.10;;;2.65;;
38940;SDS011;43236;47.208;7.518;2024-03-22T04:50:07;2.53;;;2.33;;
38940;SDS011;43236;47.208;7.518;2024-03-22T04:52:55;3.95;;;2.88;;
38940;SDS011;43236;47.208;7.518;2024-03-22T04:55:43;3.40;;;2.50;;
38940;SDS011;43236;47.208;7.518;2024-03-22T04:58:31;3.72;;;2.33;;
38940;SDS011;43236;47.208;7.518;2024-03-22T05:01:17;4.15;;;3.35;;
38940;SDS011;43236;47.208;7.518;2024-03-22T05:04:04;11.05;;;2.80;;
38940;SDS011;43236;47.208;7.518;2024-03-22T05:06:50;6.60;;;3.17;;
38940;SDS011;43236;47.208;7.518;2024-03-22T05:09:37;5.78;;;3.42;;
38940;SDS011;43236;47.208;7.518;2024-03-22T05:12:24;3.75;;;3.15;;
38940;SDS011;43236;47.208;7.518;2024-03-22T05:15:11;5.75;;;2.75;;
38940;SDS011;43236;47.208;7.518;2024-03-22T05:17:57;3.85;;;3.55;;
38940;SDS011;43236;47.208;7.518;2024-03-22T05:20:45;3.83;;;3.00;;
38940;SDS011;43236;47.208;7.518;2024-03-22T05:23:31;5.53;;;2.90;;
38940;SDS011;43236;47.208;7.518;2024-03-22T05:26:18;4.28;;;3.25;;
38940;SDS011;43236;47.208;7.518;2024-03-22T05:29:07;7.05;;;2.72;;
38940;SDS011;43236;47.208;7.518;2024-03-22T05:31:54;6.80;;;3.70;;
38940;SDS011;43236;47.208;7.518;2024-03-22T05:34:40;5.82;;;2.55;;
38940;SDS011;43236;47.208;7.518;2024-03-22T05:37:27;3.10;;;2.22;;
38940;SDS011;43236;47.208;7.518;2024-03-22T05:40:13;4.88;;;3.05;;
38940;SDS011;43236;47.208;7.518;2024-03-22T05:43:01;6.75;;;3.15;;
38940;SDS011;43236;47.208;7.518;2024-03-22T05:45:48;4.90;;;3.00;;
38940;SDS011;43236;47.208;7.518;2024-03-22T05:48:36;3.05;;;2.40;;
38940;SDS011;43236;47.208;7.518;2024-03-22T05:51:22;3.05;;;2.17;;
38940;SDS011;43236;47.208;7.518;2024-03-22T05:54:09;4.30;;;3.42;;
38940;SDS011;43236;47.208;7.518;2024-03-22T05:56:55;3.15;;;2.83;;
38940;SDS011;43236;47.208;7.518;2024-03-22T05:59:42;2.90;;;2.60;;
38940;SDS011;43236;47.208;7.518;2024-03-22T06:02:30;3.30;;;2.45;;
38940;SDS011;43236;47.208;7.518;2024-03-22T06:05:17;2.90;;;2.17;;
38940;SDS011;43236;47.208;7.518;2024-03-22T06:08:03;3.50;;;2.28;;
38940;SDS011;43236;47.208;7.518;2024-03-22T06:10:50;2.72;;;2.47;;
38940;SDS011;43236;47.208;7.518;2024-03-22T06:13:37;5.70;;;3.25;;
38940;SDS011;43236;47.208;7.518;2024-03-22T06:16:24;6.88;;;3.63;;
38940;SDS011;43236;47.208;7.518;2024-03-22T06:19:12;5.82;;;3.63;;
38940;SDS011;43236;47.208;7.518;2024-03-22T06:21:59;8.35;;;3.50;;
38940;SDS011;43236;47.208;7.518;2024-03-22T06:24:45;4.20;;;3.75;;
38940;SDS011;43236;47.208;7.518;2024-03-22T06:27:32;6.35;;;3.33;;
38940;SDS011;43236;47.208;7.518;2024-03-22T06:30:18;5.97;;;3.40;;
38940;SDS011;43236;47.208;7.518;2024-03-22T06:33:05;5.97;;;3.72;;
38940;SDS011;43236;47.208;7.518;2024-03-22T06:35:53;4.82;;;3.33;;
38940;SDS011;43236;47.208;7.518;2024-03-22T06:38:40;6.18;;;2.85;;
38940;SDS011;43236;47.208;7.518;2024-03-22T06:41:27;4.40;;;2.95;;
38940;SDS011;43236;47.208;7.518;2024-03-22T06:44:14;5.55;;;2.60;;
38940;SDS011;43236;47.208;7.518;2024-03-22T06:47:00;3.95;;;3.22;;
38940;SDS011;43236;47.208;7.518;2024-03-22T06:49:47;3.72;;;3.00;;
38940;SDS011;43236;47.208;7.518;2024-03-22T06:52:37;4.00;;;2.47;;
38940;SDS011;43236;47.208;7.518;2024-03-22T06:55:24;5.95;;;3.83;;
38940;SDS011;43236;47.208;7.518;2024-03-22T06:58:11;4.75;;;2.90;;
38940;SDS011;43236;47.208;7.518;2024-03-22T07:00:58;5.60;;;3.70;;
38940;SDS011;43236;47.208;7.518;2024-03-22T07:03:44;2.80;;;2.35;;
38940;SDS011;43236;47.208;7.518;2024-03-22T07:06:31;3.25;;;2.60;;
38940;SDS011;43236;47.208;7.518;2024-03-22T07:09:18;5.10;;;2.53;;
38940;SDS011;43236;47.208;7.518;2024-03-22T07:12:06;3.70;;;3.20;;
38940;SDS011;43236;47.208;7.518;2024-03-22T07:14:52;5.78;;;3.38;;
38940;SDS011;43236;47.208;7.518;2024-03-22T07:17:39;3.85;;;3.45;;
38940;SDS011;43236;47.208;7.518;2024-03-22T07:20:25;4.95;;;3.75;;
38940;SDS011;43236;47.208;7.518;2024-03-22T07:23:13;6.65;;;4.00;;
38940;SDS011;43236;47.208;7.518;2024-03-22T07:26:00;4.68;;;3.22;;
38940;SDS011;43236;47.208;7.518;2024-03-22T07:28:47;5.90;;;3.67;;
38940;SDS011;43236;47.208;7.518;2024-03-22T07:31:34;3.30;;;2.92;;
38940;SDS011;43236;47.208;7.518;2024-03-22T07:34:21;3.78;;;3.20;;
38940;SDS011;43236;47.208;7.518;2024-03-22T07:37:07;7.07;;;3.97;;
38940;SDS011;43236;47.208;7.518;2024-03-22T07:39:54;4.63;;;3.42;;
38940;SDS011;43236;47.208;7.518;2024-03-22T07:42:41;4.70;;;3.35;;
38940;SDS011;43236;47.208;7.518;2024-03-22T07:45:28;5.28;;;3.63;;
38940;SDS011;43236;47.208;7.518;2024-03-22T07:48:14;4.65;;;3.10;;
38940;SDS011;43236;47.208;7.518;2024-03-22T07:51:01;6.88;;;3.10;;
38940;SDS011;43236;47.208;7.518;2024-03-22T07:53:48;4.65;;;3.47;;
38940;SDS011;43236;47.208;7.518;2024-03-22T07:56:37;9.80;;;3.55;;
38940;SDS011;43236;47.208;7.518;2024-03-22T07:59:24;4.05;;;2.92;;
38940;SDS011;43236;47.208;7.518;2024-03-22T08:02:11;5.00;;;3.22;;
38940;SDS011;43236;47.208;7.518;2024-03-22T08:04:57;4.78;;;3.25;;
38940;SDS011;43236;47.208;7.518;2024-03-22T08:07:45;8.68;;;3.40;;
38940;SDS011;43236;47.208;7.518;2024-03-22T08:10:31;4.72;;;3.22;;
38940;SDS011;43236;47.208;7.518;2024-03-22T08:13:18;8.35;;;3.40;;
38940;SDS011;43236;47.208;7.518;2024-03-22T08:16:05;4.35;;;3.17;;
38940;SDS011;43236;47.208;7.518;2024-03-22T08:18:52;4.85;;;4.28;;
38940;SDS011;43236;47.208;7.518;2024-03-22T08:21:38;6.30;;;3.47;;
38940;SDS011;43236;47.208;7.518;2024-03-22T08:24:26;4.32;;;2.90;;
38940;SDS011;43236;47.208;7.518;2024-03-22T08:27:12;5.47;;;3.15;;
38940;SDS011;43236;47.208;7.518;2024-03-22T08:29:59;4.03;;;3.40;;
38940;SDS011;43236;47.208;7.518;2024-03-22T08:32:46;7.25;;;3.95;;
38940;SDS011;43236;47.208;7.518;2024-03-22T08:35:33;3.75;;;2.90;;
38940;SDS011;43236;47.208;7.518;2024-03-22T08:38:23;6.60;;;3.33;;
38940;SDS011;43236;47.208;7.518;2024-03-22T08:41:09;5.40;;;3.30;;
38940;SDS011;43236;47.208;7.518;2024-03-22T08:43:57;8.40;;;2.60;;
38940;SDS011;43236;47.208;7.518;2024-03-22T08:46:44;4.65;;;2.42;;
38940;SDS011;43236;47.208;7.518;2024-03-22T08:49:32;3.53;;;3.13;;
38940;SDS011;43236;47.208;7.518;2024-03-22T08:52:21;3.40;;;2.80;;
38940;SDS011;43236;47.208;7.518;2024-03-22T08:55:09;3.40;;;2.97;;
38940;SDS011;43236;47.208;7.518;2024-03-22T08:57:56;5.05;;;4.32;;
38940;SDS011;43236;47.208;7.518;2024-03-22T09:00:42;4.25;;;3.13;;
38940;SDS011;43236;47.208;7.518;2024-03-22T09:03:30;4.00;;;2.72;;
38940;SDS011;43236;47.208;7.518;2024-03-22T09:06:17;3.47;;;3.15;;
38940;SDS011;43236;47.208;7.518;2024-03-22T09:09:05;2.97;;;2.67;;
38940;SDS011;43236;47.208;7.518;2024-03-22T09:11:51;6.13;;;2.92;;
38940;SDS011;43236;47.208;7.518;2024-03-22T09:14:39;4.47;;;2.95;;
38940;SDS011;43236;47.208;7.518;2024-03-22T09:17:25;5.90;;;3.05;;
38940;SDS011;43236;47.208;7.518;2024-03-22T09:20:12;3.88;;;2.97;;
38940;SDS011;43236;47.208;7.518;2024-03-22T09:23:00;4.22;;;3.33;;
38940;SDS011;43236;47.208;7.518;2024-03-22T09:25:47;3.65;;;2.40;;
38940;SDS011;43236;47.208;7.518;2024-03-22T09:28:33;4.60;;;3.13;;
38940;SDS011;43236;47.208;7.518;2024-03-22T09:31:20;4.53;;;2.65;;
38940;SDS011;43236;47.208;7.518;2024-03-22T09:34:06;2.70;;;2.50;;
38940;SDS011;43236;47.208;7.518;2024-03-22T09:36:53;3.63;;;2.58;;
38940;SDS011;43236;47.208;7.518;2024-03-22T09:39:41;5.90;;;2.55;;
38940;SDS011;43236;47.208;7.518;2024-03-22T09:42:28;3.17;;;2.55;;
38940;SDS011;43236;47.208;7.518;2024-03-22T09:45:19;5.07;;;3.53;;
38940;SDS011;43236;47.208;7.518;2024-03-22T09:48:06;2.40;;;1.98;;
38940;SDS011;43236;47.208;7.518;2024-03-22T09:50:53;2.65;;;2.45;;
38940;SDS011;43236;47.208;7.518;2024-03-22T09:53:40;3.25;;;2.88;;
38940;SDS011;43236;47.208;7.518;2024-03-22T09:56:31;3.88;;;2.20;;
38940;SDS011;43236;47.208;7.518;2024-03-22T09:59:17;3.80;;;2.75;;
38940;SDS011;43236;47.208;7.518;2024-03-22T10:02:04;3.67;;;2.78;;
38940;SDS011;43236;47.208;7.518;2024-03-22T10:04:56;4.70;;;2.83;;
38940;SDS011;43236;47.208;7.518;2024-03-22T10:07:43;4.07;;;2.42;;
38940;SDS011;43236;47.208;7.518;2024-03-22T10:10:29;2.70;;;2.50;;
38940;SDS011;43236;47.208;7.518;2024-03-22T10:13:22;4.50;;;2.35;;
38940;SDS011;43236;47.208;7.518;2024-03-22T10:16:08;2.90;;;2.33;;
38940;SDS011;43236;47.208;7.518;2024-03-22T10:18:55;3.83;;;2.97;;
38940;SDS011;43236;47.208;7.518;2024-03-22T10:21:41;3.35;;;2.67;;
38940;SDS011;43236;47.208;7.518;2024-03-22T10:24:29;4.25;;;2.90;;
38940;SDS011;43236;47.208;7.518;2024-03-22T10:27:15;4.07;;;2.53;;
38940;SDS011;43236;47.208;7.518;2024-03-22T10:30:05;3.92;;;3.30;;
38940;SDS011;43236;47.208;7.518;2024-03-22T10:32:54;3.05;;;2.40;;
38940;SDS011;43236;47.208;7.518;2024-03-22T10:35:41;3.17;;;2.47;;
38940;SDS011;43236;47.208;7.518;2024-03-22T10:38:29;3.33;;;2.30;;
38940;SDS011;43236;47.208;7.518;2024-03-22T10:41:18;2.78;;;2.40;;
38940;SDS011;43236;47.208;7.518;2024-03-22T10:44:04;4.70;;;3.28;;
38940;SDS011;43236;47.208;7.518;2024-03-22T10:46:55;4.20;;;2.67;;
38940;SDS011;43236;47.208;7.518;2024-03-22T10:49:46;4.40;;;4.00;;
38940;SDS011;43236;47.208;7.518;2024-03-22T10:52:37;2.95;;;2.65;;
38940;SDS011;43236;47.208;7.518;2024-03-22T10:55:27;5.22;;;3.20;;
38940;SDS011;43236;47.208;7.518;2024-03-22T10:58:17;3.28;;;2.75;;
38940;SDS011;43236;47.208;7.518;2024-03-22T11:01:03;3.40;;;2.72;;
38940;SDS011;43236;47.208;7.518;2024-03-22T11:03:52;8.10;;;6.13;;
38940;SDS011;43236;47.208;7.518;2024-03-22T11:06:48;14.43;;;8.10;;
38940;SDS011;43236;47.208;7.518;2024-03-22T11:09:36;7.82;;;6.00;;
38940;SDS011;43236;47.208;7.518;2024-03-22T11:12:23;6.68;;;4.65;;
38940;SDS011;43236;47.208;7.518;2024-03-22T11:15:11;11.93;;;8.15;;
38940;SDS011;43236;47.208;7.518;2024-03-22T11:17:58;6.30;;;3.72;;
38940;SDS011;43236;47.208;7.518;2024-03-22T11:20:47;7.28;;;4.35;;
38940;SDS011;43236;47.208;7.518;2024-03-22T11:23:33;5.30;;;3.50;;
38940;SDS011;43236;47.208;7.518;2024-03-22T11:26:21;3.38;;;2.33;;
38940;SDS011;43236;47.208;7.518;2024-03-22T11:29:07;3.72;;;2.22;;
38940;SDS011;43236;47.208;7.518;2024-03-22T11:31:54;3.38;;;2.13;;
38940;SDS011;43236;47.208;7.518;2024-03-22T11:34:41;2.20;;;1.80;;
38940;SDS011;43236;47.208;7.518;2024-03-22T11:37:33;5.80;;;2.30;;
38940;SDS011;43236;47.208;7.518;2024-03-22T11:40:22;2.08;;;1.80;;
38940;SDS011;43236;47.208;7.518;2024-03-22T11:43:10;3.67;;;2.47;;
38940;SDS011;43236;47.208;7.518;2024-03-22T11:45:59;3.25;;;2.20;;
38940;SDS011;43236;47.208;7.518;2024-03-22T11:48:50;2.55;;;2.28;;
38940;SDS011;43236;47.208;7.518;2024-03-22T11:51:38;4.72;;;2.35;;
38940;SDS011;43236;47.208;7.518;2024-03-22T11:54:26;2.03;;;1.42;;
38940;SDS011;43236;47.208;7.518;2024-03-22T11:57:13;3.25;;;1.70;;
38940;SDS011;43236;47.208;7.518;2024-03-22T12:00:02;1.67;;;1.58;;
38940;SDS011;43236;47.208;7.518;2024-03-22T12:02:50;5.35;;;1.98;;
38940;SDS011;43236;47.208;7.518;2024-03-22T12:05:37;2.95;;;1.70;;
38940;SDS011;43236;47.208;7.518;2024-03-22T12:08:25;2.85;;;2.00;;
38940;SDS011;43236;47.208;7.518;2024-03-22T12:11:14;2.92;;;1.92;;
38940;SDS011;43236;47.208;7.518;2024-03-22T12:14:00;3.35;;;1.73;;
38940;SDS011;43236;47.208;7.518;2024-03-22T12:16:50;2.90;;;2.00;;
38940;SDS011;43236;47.208;7.518;2024-03-22T12:19:36;1.95;;;1.73;;
38940;SDS011;43236;47.208;7.518;2024-03-22T12:22:23;3.25;;;2.40;;
38940;SDS011;43236;47.208;7.518;2024-03-22T12:25:11;2.83;;;2.25;;
38940;SDS011;43236;47.208;7.518;2024-03-22T12:27:59;4.22;;;2.00;;
38940;SDS011;43236;47.208;7.518;2024-03-22T12:30:45;4.28;;;2.13;;
38940;SDS011;43236;47.208;7.518;2024-03-22T12:33:32;3.15;;;2.35;;
38940;SDS011;43236;47.208;7.518;2024-03-22T12:36:18;2.97;;;2.58;;
38940;SDS011;43236;47.208;7.518;2024-03-22T12:39:05;3.65;;;2.60;;
38940;SDS011;43236;47.208;7.518;2024-03-22T12:41:52;2.78;;;2.00;;
38940;SDS011;43236;47.208;7.518;2024-03-22T12:44:41;1.70;;;1.58;;
38940;SDS011;43236;47.208;7.518;2024-03-22T12:47:27;1.95;;;1.63;;
38940;SDS011;43236;47.208;7.518;2024-03-22T12:50:14;2.30;;;1.52;;
38940;SDS011;43236;47.208;7.518;2024-03-22T12:53:00;2.30;;;1.90;;
38940;SDS011;43236;47.208;7.518;2024-03-22T12:55:47;4.18;;;2.15;;
38940;SDS011;43236;47.208;7.518;2024-03-22T12:58:33;2.45;;;2.22;;
38940;SDS011;43236;47.208;7.518;2024-03-22T13:01:22;5.30;;;2.33;;
38940;SDS011;43236;47.208;7.518;2024-03-22T13:04:08;2.63;;;2.00;;
38940;SDS011;43236;47.208;7.518;2024-03-22T13:06:55;3.55;;;2.13;;
38940;SDS011;43236;47.208;7.518;2024-03-22T13:09:41;2.60;;;1.75;;
38940;SDS011;43236;47.208;7.518;2024-03-22T13:12:28;4.90;;;2.10;;
38940;SDS011;43236;47.208;7.518;2024-03-22T13:15:16;3.08;;;2.10;;
38940;SDS011;43236;47.208;7.518;2024-03-22T13:18:05;3.25;;;2.00;;
38940;SDS011;43236;47.208;7.518;2024-03-22T13:20:51;2.40;;;2.10;;
38940;SDS011;43236;47.208;7.518;2024-03-22T13:23:38;2.88;;;1.85;;
38940;SDS011;43236;47.208;7.518;2024-03-22T13:26:25;3.65;;;2.00;;
38940;SDS011;43236;47.208;7.518;2024-03-22T13:29:12;2.35;;;1.83;;
38940;SDS011;43236;47.208;7.518;2024-03-22T13:31:59;2.53;;;1.65;;
38940;SDS011;43236;47.208;7.518;2024-03-22T13:34:47;1.95;;;1.33;;
38940;SDS011;43236;47.208;7.518;2024-03-22T13:37:35;2.08;;;1.40;;
38940;SDS011;43236;47.208;7.518;2024-03-22T13:40:23;2.65;;;1.63;;
38940;SDS011;43236;47.208;7.518;2024-03-22T13:43:09;2.67;;;1.70;;
38940;SDS011;43236;47.208;7.518;2024-03-22T13:45:56;2.28;;;1.10;;
38940;SDS011;43236;47.208;7.518;2024-03-22T13:48:42;4.30;;;1.98;;
38940;SDS011;43236;47.208;7.518;2024-03-22T13:51:31;2.35;;;1.92;;
38940;SDS011;43236;47.208;7.518;2024-03-22T13:54:17;1.75;;;1.52;;
38940;SDS011;43236;47.208;7.518;2024-03-22T13:57:04;2.05;;;1.73;;
38940;SDS011;43236;47.208;7.518;2024-03-22T13:59:50;1.85;;;1.38;;
38940;SDS011;43236;47.208;7.518;2024-03-22T14:02:37;3.63;;;1.95;;
38940;SDS011;43236;47.208;7.518;2024-03-22T14:05:24;4.47;;;1.85;;
38940;SDS011;43236;47.208;7.518;2024-03-22T14:08:13;2.22;;;1.63;;
38940;SDS011;43236;47.208;7.518;2024-03-22T14:11:00;2.08;;;1.88;;
38940;SDS011;43236;47.208;7.518;2024-03-22T14:13:46;2.13;;;1.60;;
38940;SDS011;43236;47.208;7.518;2024-03-22T14:16:34;5.00;;;2.30;;
38940;SDS011;43236;47.208;7.518;2024-03-22T14:19:20;1.80;;;1.65;;
38940;SDS011;43236;47.208;7.518;2024-03-22T14:22:07;2.33;;;1.50;;
38940;SDS011;43236;47.208;7.518;2024-03-22T14:24:55;2.30;;;1.40;;
38940;SDS011;43236;47.208;7.518;2024-03-22T14:27:42;2.65;;;1.98;;
38940;SDS011;43236;47.208;7.518;2024-03-22T14:30:31;4.22;;;1.90;;
38940;SDS011;43236;47.208;7.518;2024-03-22T14:33:18;2.35;;;1.83;;
38940;SDS011;43236;47.208;7.518;2024-03-22T14:36:04;2.80;;;1.52;;
38940;SDS011;43236;47.208;7.518;2024-03-22T14:38:52;2.03;;;1.70;;
38940;SDS011;43236;47.208;7.518;2024-03-22T14:41:41;2.83;;;1.60;;
38940;SDS011;43236;47.208;7.518;2024-03-22T14:44:27;2.00;;;1.77;;
38940;SDS011;43236;47.208;7.518;2024-03-22T14:47:14;2.17;;;1.80;;
38940;SDS011;43236;47.208;7.518;2024-03-22T14:50:00;1.92;;;1.58;;
38940;SDS011;43236;47.208;7.518;2024-03-22T14:52:47;5.93;;;2.28;;
38940;SDS011;43236;47.208;7.518;2024-03-22T14:55:33;2.00;;;1.23;;
38940;SDS011;43236;47.208;7.518;2024-03-22T14:58:23;1.65;;;1.27;;
38940;SDS011;43236;47.208;7.518;2024-03-22T15:01:09;2.28;;;1.42;;
38940;SDS011;43236;47.208;7.518;2024-03-22T15:03:56;2.13;;;1.42;;
38940;SDS011;43236;47.208;7.518;2024-03-22T15:06:42;5.38;;;2.38;;
38940;SDS011;43236;47.208;7.518;2024-03-22T15:09:30;2.20;;;1.30;;
38940;SDS011;43236;47.208;7.518;2024-03-22T15:12:17;2.63;;;1.45;;
38940;SDS011;43236;47.208;7.518;2024-03-22T15:15:06;2.55;;;1.65;;
38940;SDS011;43236;47.208;7.518;2024-03-22T15:17:53;1.23;;;1.10;;
38940;SDS011;43236;47.208;7.518;2024-03-22T15:20:40;6.55;;;1.58;;
38940;SDS011;43236;47.208;7.518;2024-03-22T15:23:26;1.55;;;1.20;;
38940;SDS011;43236;47.208;7.518;2024-03-22T15:26:13;1.20;;;1.10;;
38940;SDS011;43236;47.208;7.518;2024-03-22T15:29:00;4.38;;;1.23;;
38940;SDS011;43236;47.208;7.518;2024-03-22T15:31:48;4.80;;;1.50;;
38940;SDS011;43236;47.208;7.518;2024-03-22T15:34:34;1.45;;;1.33;;
38940;SDS011;43236;47.208;7.518;2024-03-22T15:37:21;1.55;;;1.35;;
38940;SDS011;43236;47.208;7.518;2024-03-22T15:40:08;2.00;;;1.52;;
38940;SDS011;43236;47.208;7.518;2024-03-22T15:42:55;3.45;;;1.33;;
38940;SDS011;43236;47.208;7.518;2024-03-22T15:45:41;1.40;;;1.15;;
38940;SDS011;43236;47.208;7.518;2024-03-22T15:48:29;1.38;;;1.27;;
38940;SDS011;43236;47.208;7.518;2024-03-22T15:51:15;1.88;;;1.65;;
38940;SDS011;43236;47.208;7.518;2024-03-22T15:54:03;2.03;;;1.10;;
38940;SDS011;43236;47.208;7.518;2024-03-22T15:56:49;1.08;;;0.95;;
38940;SDS011;43236;47.208;7.518;2024-03-22T15:59:36;2.13;;;1.05;;
38940;SDS011;43236;47.208;7.518;2024-03-22T16:02:22;1.55;;;1.05;;
38940;SDS011;43236;47.208;7.518;2024-03-22T16:05:11;1.90;;;1.25;;
38940;SDS011;43236;47.208;7.518;2024-03-22T16:07:58;2.95;;;1.10;;
38940;SDS011;43236;47.208;7.518;2024-03-22T16:10:44;2.67;;;1.55;;
38940;SDS011;43236;47.208;7.518;2024-03-22T16:13:31;2.95;;;1.35;;
38940;SDS011;43236;47.208;7.518;2024-03-22T16:16:17;2.33;;;1.08;;
38940;SDS011;43236;47.208;7.518;2024-03-22T16:19:04;1.17;;;0.88;;
38940;SDS011;43236;47.208;7.518;2024-03-22T16:21:52;1.15;;;1.10;;
38940;SDS011;43236;47.208;7.518;2024-03-22T16:24:39;1.70;;;1.60;;
38940;SDS011;43236;47.208;7.518;2024-03-22T16:27:26;1.23;;;1.13;;
38940;SDS011;43236;47.208;7.518;2024-03-22T16:30:12;1.13;;;1.00;;
38940;SDS011;43236;47.208;7.518;2024-03-22T16:32:59;2.47;;;1.30;;
38940;SDS011;43236;47.208;7.518;2024-03-22T16:35:48;1.17;;;1.05;;
38940;SDS011;43236;47.208;7.518;2024-03-22T16:38:37;3.22;;;1.73;;
38940;SDS011;43236;47.208;7.518;2024-03-22T16:41:23;2.58;;;1.17;;
38940;SDS011;43236;47.208;7.518;2024-03-22T16:44:10;1.80;;;1.70;;
38940;SDS011;43236;47.208;7.518;2024-03-22T16:46:56;3.25;;;1.55;;